Minneapolis, Minnesota
Traffic Map
Current Weather Conditions
Minneapolis, Minnesota
Few Clouds
Few Clouds
71°
Feels Like: 71°
Wind Chill: 71° Ceiling: Unl
Heat Index: 71° Visibility: 10mi
Dew Point: 55° Wind: 6mph
Humidity: 57% Direction: 250° (WSW)
Pressure: 29.97in Gusts: 0mph
Raw Report DataKMSP 031453Z 25005KT 10SM FEW300 22/13 A2997 RMK AO2 SLP145 T02170128 58004
Traffic Incident Summary
Active as of:
Severity:
Category:
InformationThere was an issue retrieving the traffic information for this location. Please try a different location or try again shortly.
Advertisements
Track Severe Weather on mobile